Time;durP1;ratioP1;P1;durP2;ratioP2;P2;SDS_P1;SDS_P2;PMS_P1;PMS_P2;Temp;Humidity;BMP_temperature;BMP_pressure;BME280_temperature;BME280_humidity;BME280_pressure;Samples;Min_cycle;Max_cycle;Signal;HPM_P1;HPM_P2
2021/03/11 00:02:06;;;;;;;;;;;;;;;19.48;36.27;100754.66;5057618;28;827;-46
2021/03/11 00:04:31;;;;;;;;;;;;;;;19.45;36.34;100758.84;5058043;28;1985;-46
2021/03/11 00:06:57;;;;;;;;;;;;;;;20.38;34.23;100745.75;5058036;28;886;-46
2021/03/11 00:09:22;;;;;;;;;;;;;;;20.29;34.52;100737.34;5045681;28;1503;-47
2021/03/11 00:11:48;;;;;;;;;;;;;;;20.02;34.98;100738.00;5078028;28;791;-46
2021/03/11 00:14:13;;;;;;;;;;;;;;;19.60;35.73;100726.66;5059756;28;868;-47
2021/03/11 00:16:39;;;;;;;;;;;;;;;19.64;35.85;100741.50;5077201;28;788;-47
2021/03/11 00:19:04;;;;;;;;;;;;;;;20.43;34.51;100737.41;5077869;28;756;-46
2021/03/11 00:21:30;;;;;;;;;;;;;;;20.27;34.51;100723.00;5077682;28;803;-46
2021/03/11 00:23:55;;;;;;;;;;;;;;;20.05;35.14;100713.41;5073505;28;1983;-46
2021/03/11 00:26:20;;;;;;;;;;;;;;;19.54;35.99;100727.84;5057624;28;760;-46
2021/03/11 00:28:46;;;;;;;;;;;;;;;19.14;36.76;100731.59;5057498;28;803;-46
2021/03/11 00:31:12;;;;;;;;;;;;;;;20.18;34.88;100736.66;5056243;28;1149;-49
2021/03/11 00:33:37;;;;;;;;;;;;;;;20.74;33.56;100723.91;5041252;28;1108;-46
2021/03/11 00:36:03;;;;;;;;;;;;;;;20.03;34.83;100718.38;5058964;28;772;-46
2021/03/11 00:38:28;;;;;;;;;;;;;;;19.97;35.11;100736.97;5077324;28;841;-46
2021/03/11 00:40:54;;;;;;;;;;;;;;;19.28;36.41;100715.19;5057826;28;958;-47
2021/03/11 00:43:19;;;;;;;;;;;;;;;19.92;35.20;100727.94;5057122;28;1914;-48
2021/03/11 00:45:47;;;;;;;;;;;;;;;20.70;33.66;100722.06;5057089;28;819;-48
2021/03/11 00:48:13;;;;;;;;;;;;;;;20.14;34.63;100724.59;5057534;28;841;-46
2021/03/11 00:50:39;;;;;;;;;;;;;;;19.96;34.99;100740.00;5039141;28;854;-47
2021/03/11 00:53:04;;;;;;;;;;;;;;;19.39;36.35;100739.88;5056832;28;816;-46
2021/03/11 00:55:30;;;;;;;;;;;;;;;19.88;35.21;100732.41;5073294;28;964;-47
2021/03/11 00:57:55;;;;;;;;;;;;;;;20.60;33.83;100734.09;5077210;28;736;-47
2021/03/11 01:00:26;;;;;;;;;;;;;;;20.16;34.49;100723.16;5076628;28;795;-46
2021/03/11 01:03:12;;;;;;;;;;;;;;;19.95;34.88;100727.31;5076428;28;1332;-47
2021/03/11 01:05:43;;;;;;;;;;;;;;;19.28;36.28;100730.94;5077031;28;791;-50
2021/03/11 01:08:19;;;;;;;;;;;;;;;20.13;34.72;100731.22;5058867;28;1274;-47
2021/03/11 01:10:45;;;;;;;;;;;;;;;20.73;33.63;100726.97;5058042;28;962;-49
2021/03/11 01:13:10;;;;;;;;;;;;;;;20.18;34.42;100718.16;5056840;28;787;-49
2021/03/11 01:15:39;;;;;;;;;;;;;;;20.11;34.68;100730.69;5056360;28;760;-50
2021/03/11 01:18:05;;;;;;;;;;;;;;;19.47;36.08;100720.78;5056833;28;742;-47
2021/03/11 01:20:31;;;;;;;;;;;;;;;19.45;36.25;100731.25;5056751;28;815;-47
2021/03/11 01:22:56;;;;;;;;;;;;;;;20.34;34.45;100728.97;5056354;28;728;-47
2021/03/11 01:25:21;;;;;;;;;;;;;;;20.30;34.33;100716.88;5071177;28;1956;-48
2021/03/11 01:27:47;;;;;;;;;;;;;;;20.00;34.94;100713.47;5076670;28;836;-50
2021/03/11 01:30:13;;;;;;;;;;;;;;;19.73;35.40;100725.94;5076367;28;756;-49
2021/03/11 01:32:38;;;;;;;;;;;;;;;19.48;36.14;100722.38;5076340;28;1178;-48
2021/03/11 01:35:04;;;;;;;;;;;;;;;20.32;34.26;100722.94;5063306;28;1154;-50
2021/03/11 01:37:30;;;;;;;;;;;;;;;20.48;34.05;100718.81;5056062;28;814;-47
2021/03/11 01:39:55;;;;;;;;;;;;;;;20.06;34.99;100716.97;5056392;28;1034;-49
2021/03/11 01:42:21;;;;;;;;;;;;;;;19.78;35.38;100734.16;5056711;28;774;-46
2021/03/11 01:44:46;;;;;;;;;;;;;;;19.17;36.55;100740.38;5055985;28;1902;-47
2021/03/11 01:47:11;;;;;;;;;;;;;;;19.78;35.41;100745.19;5056164;28;828;-48
2021/03/11 01:49:37;;;;;;;;;;;;;;;20.64;33.69;100760.00;5056455;28;757;-45
2021/03/11 01:52:03;;;;;;;;;;;;;;;20.15;34.51;100754.66;5055941;28;818;-47
2021/03/11 01:54:29;;;;;;;;;;;;;;;20.03;34.76;100751.50;5063762;28;966;-48
2021/03/11 01:56:55;;;;;;;;;;;;;;;19.56;35.67;100737.47;5076293;28;870;-46
2021/03/11 01:59:20;;;;;;;;;;;;;;;19.77;35.66;100735.28;5075791;28;803;-46
2021/03/11 02:01:46;;;;;;;;;;;;;;;20.52;33.84;100753.00;5058192;28;865;-47
2021/03/11 02:04:11;;;;;;;;;;;;;;;20.52;33.72;100749.38;5058684;28;1902;-46
2021/03/11 02:06:37;;;;;;;;;;;;;;;20.22;34.46;100747.94;5075625;28;767;-46
2021/03/11 02:09:03;;;;;;;;;;;;;;;19.71;35.44;100754.94;5071874;28;1026;-46
2021/03/11 02:11:29;;;;;;;;;;;;;;;19.13;36.68;100763.03;5056225;28;822;-45
2021/03/11 02:14:12;;;;;;;;;;;;;;;20.03;34.89;100762.53;5037813;28;937;-47
2021/03/11 02:16:38;;;;;;;;;;;;;;;20.57;33.72;100767.84;5056039;28;835;-46
2021/03/11 02:19:18;;;;;;;;;;;;;;;20.09;34.61;100766.88;5056062;28;882;-47
2021/03/11 02:21:54;;;;;;;;;;;;;;;19.85;35.16;100760.59;5037871;28;840;-47
2021/03/11 02:24:28;;;;;;;;;;;;;;;19.15;36.63;100760.81;5038245;28;1965;-48
2021/03/11 02:27:04;;;;;;;;;;;;;;;20.02;34.80;100771.97;5038319;28;775;-47
2021/03/11 02:29:29;;;;;;;;;;;;;;;20.62;33.72;100785.16;5055667;28;752;-46
2021/03/11 02:31:55;;;;;;;;;;;;;;;20.10;34.60;100778.75;5055957;28;1195;-48
2021/03/11 02:34:22;;;;;;;;;;;;;;;19.69;35.49;100765.47;5063138;28;1085;-49
2021/03/11 02:36:48;;;;;;;;;;;;;;;19.14;36.81;100770.19;5057474;28;912;-48
2021/03/11 02:39:14;;;;;;;;;;;;;;;20.11;34.75;100778.44;5051621;28;983;-47
2021/03/11 02:41:39;;;;;;;;;;;;;;;20.84;33.45;100781.75;5055780;28;903;-47
2021/03/11 02:44:05;;;;;;;;;;;;;;;20.20;34.37;100772.25;5037758;28;1969;-47
2021/03/11 02:46:30;;;;;;;;;;;;;;;20.01;34.77;100786.88;5055737;28;803;-49
2021/03/11 02:48:56;;;;;;;;;;;;;;;19.32;36.37;100781.56;5055964;28;752;-48
2021/03/11 02:51:21;;;;;;;;;;;;;;;19.78;35.47;100797.63;5055409;28;748;-45
2021/03/11 02:53:47;;;;;;;;;;;;;;;20.60;33.86;100803.97;5039620;28;952;-46
2021/03/11 02:56:12;;;;;;;;;;;;;;;20.03;34.84;100806.72;5060824;28;903;-47
2021/03/11 02:58:41;;;;;;;;;;;;;;;19.90;35.01;100821.25;5061135;28;828;-47
2021/03/11 03:01:07;;;;;;;;;;;;;;;19.40;36.16;100827.81;5079163;28;779;-47
2021/03/11 03:03:32;;;;;;;;;;;;;;;19.67;35.55;100823.69;5079280;28;1968;-46
2021/03/11 03:05:58;;;;;;;;;;;;;;;20.52;33.79;100832.25;5060999;28;775;-47
2021/03/11 03:08:23;;;;;;;;;;;;;;;20.17;34.69;100840.78;5079013;28;788;-47
2021/03/11 03:10:49;;;;;;;;;;;;;;;20.19;34.63;100837.72;5042485;28;966;-47
2021/03/11 03:13:15;;;;;;;;;;;;;;;19.57;35.74;100843.94;5040959;28;1346;-47
2021/03/11 03:15:41;;;;;;;;;;;;;;;19.45;36.19;100840.75;5058995;28;736;-49
2021/03/11 03:18:06;;;;;;;;;;;;;;;20.39;34.29;100844.88;5041326;28;757;-48
2021/03/11 03:20:32;;;;;;;;;;;;;;;20.27;34.44;100850.84;5058467;28;748;-46
2021/03/11 03:22:57;;;;;;;;;;;;;;;20.01;35.00;100855.88;5041044;28;816;-48
2021/03/11 03:25:23;;;;;;;;;;;;;;;19.48;35.75;100846.50;5074118;28;1981;-47
2021/03/11 03:27:49;;;;;;;;;;;;;;;19.38;36.08;100857.63;5078308;28;854;-46
2021/03/11 03:30:15;;;;;;;;;;;;;;;20.27;34.33;100855.53;5078835;28;818;-47
2021/03/11 03:32:41;;;;;;;;;;;;;;;20.42;33.89;100871.09;5078734;28;1051;-48
2021/03/11 03:35:07;;;;;;;;;;;;;;;20.08;34.66;100875.66;5064399;28;1103;-46
2021/03/11 03:37:33;;;;;;;;;;;;;;;19.77;35.07;100875.19;5058687;28;788;-46
2021/03/11 03:39:58;;;;;;;;;;;;;;;19.10;36.78;100876.63;5070349;28;995;-46
2021/03/11 03:42:24;;;;;;;;;;;;;;;19.77;35.32;100880.69;5077971;28;827;-46
2021/03/11 03:44:49;;;;;;;;;;;;;;;20.58;33.73;100885.50;5078570;28;1918;-46
2021/03/11 03:47:15;;;;;;;;;;;;;;;20.20;34.56;100889.03;5060530;28;814;-46
2021/03/11 03:49:41;;;;;;;;;;;;;;;19.98;34.85;100881.31;5059958;28;852;-45
2021/03/11 03:52:07;;;;;;;;;;;;;;;19.68;35.48;100877.72;5060543;28;919;-48
2021/03/11 03:54:33;;;;;;;;;;;;;;;19.26;36.30;100888.31;5069762;28;1013;-45
2021/03/11 03:57:00;;;;;;;;;;;;;;;20.20;34.38;100885.44;5039726;28;866;-46
2021/03/11 03:59:26;;;;;;;;;;;;;;;20.47;33.87;100907.75;5040440;28;928;-46
2021/03/11 04:01:52;;;;;;;;;;;;;;;20.05;34.79;100898.34;5058118;28;815;-46
2021/03/11 04:04:18;;;;;;;;;;;;;;;19.74;35.15;100904.16;5057586;28;1971;-49
2021/03/11 04:06:43;;;;;;;;;;;;;;;19.22;36.36;100901.03;5039086;28;1121;-45
2021/03/11 04:09:09;;;;;;;;;;;;;;;19.77;35.50;100913.81;5045352;28;984;-48
2021/03/11 04:11:35;;;;;;;;;;;;;;;20.56;33.61;100913.41;5059959;28;757;-47
2021/03/11 04:14:01;;;;;;;;;;;;;;;20.22;34.17;100916.38;5077751;28;728;-49
2021/03/11 04:16:27;;;;;;;;;;;;;;;19.91;34.98;100919.47;5077661;28;942;-50
2021/03/11 04:18:52;;;;;;;;;;;;;;;19.48;35.81;100925.66;5060406;28;804;-57
2021/03/11 04:21:18;;;;;;;;;;;;;;;19.29;36.38;100922.78;5059689;28;768;-58
2021/03/11 04:23:44;;;;;;;;;;;;;;;20.21;34.51;100928.53;5058040;28;1982;-55
2021/03/11 04:26:09;;;;;;;;;;;;;;;20.25;34.16;100924.06;5039967;28;764;-59
2021/03/11 04:28:35;;;;;;;;;;;;;;;20.03;34.87;100925.41;5039459;28;918;-60
2021/03/11 04:31:00;;;;;;;;;;;;;;;19.67;35.40;100937.63;5039653;28;1045;-59
2021/03/11 04:33:26;;;;;;;;;;;;;;;19.27;36.28;100930.53;5039638;28;1171;-59
2021/03/11 04:35:51;;;;;;;;;;;;;;;20.20;34.64;100940.69;5058901;28;1267;-57
2021/03/11 04:38:17;;;;;;;;;;;;;;;20.86;33.11;100927.97;5059559;28;791;-48
2021/03/11 04:40:42;;;;;;;;;;;;;;;21.16;32.51;100939.66;5059088;28;1022;-55
2021/03/11 04:43:08;;;;;;;;;;;;;;;20.54;33.49;100939.69;5039063;28;819;-49
2021/03/11 04:45:33;;;;;;;;;;;;;;;20.20;34.53;100935.16;5039324;28;1977;-58
2021/03/11 04:48:00;;;;;;;;;;;;;;;19.56;35.65;100940.75;5039612;28;740;-52
2021/03/11 04:50:25;;;;;;;;;;;;;;;19.36;35.97;100945.31;5039222;28;938;-55
2021/03/11 04:52:51;;;;;;;;;;;;;;;20.39;33.88;100960.06;5039118;28;780;-56
2021/03/11 04:55:16;;;;;;;;;;;;;;;20.37;34.08;100965.03;5050465;28;1230;-55
2021/03/11 04:57:42;;;;;;;;;;;;;;;20.08;34.68;100974.22;5057631;28;1355;-57
2021/03/11 05:00:17;;;;;;;;;;;;;;;19.61;35.21;100977.38;5077578;28;770;-56
2021/03/11 05:02:44;;;;;;;;;;;;;;;19.08;36.56;100977.25;5057022;28;790;-58
2021/03/11 05:05:09;;;;;;;;;;;;;;;20.04;34.43;100979.50;5056347;28;1979;-61
2021/03/11 05:07:35;;;;;;;;;;;;;;;20.38;33.90;100978.56;5057038;28;756;-58
2021/03/11 05:10:00;;;;;;;;;;;;;;;20.12;34.24;100981.63;5056543;28;956;-59
2021/03/11 05:12:26;;;;;;;;;;;;;;;19.91;34.79;100977.41;5056486;28;898;-61
2021/03/11 05:14:51;;;;;;;;;;;;;;;19.21;36.10;100984.88;5056854;28;870;-51
2021/03/11 05:17:17;;;;;;;;;;;;;;;19.98;34.60;100986.19;5056383;28;739;-61
2021/03/11 05:19:42;;;;;;;;;;;;;;;20.71;33.08;100984.25;5056741;28;819;-54
2021/03/11 05:22:07;;;;;;;;;;;;;;;20.17;34.03;101000.91;5056720;28;728;-56
2021/03/11 05:24:33;;;;;;;;;;;;;;;20.05;34.56;100999.63;5065001;28;1914;-66
2021/03/11 05:26:58;;;;;;;;;;;;;;;19.55;35.46;100992.34;5076483;28;806;-59
2021/03/11 05:29:24;;;;;;;;;;;;;;;19.08;36.19;100997.38;5076715;28;502;-51
2021/03/11 05:31:49;;;;;;;;;;;;;;;20.06;34.36;101015.91;5076314;28;1111;-58
2021/03/11 05:34:15;;;;;;;;;;;;;;;20.70;33.26;101017.72;5069784;28;1084;-59
2021/03/11 05:36:41;;;;;;;;;;;;;;;19.98;34.32;101013.78;5056465;28;803;-48
2021/03/11 05:39:07;;;;;;;;;;;;;;;19.76;34.93;101012.28;5056069;28;963;-52
2021/03/11 05:41:34;;;;;;;;;;;;;;;19.19;35.88;101011.09;5056152;28;838;-59
2021/03/11 05:43:59;;;;;;;;;;;;;;;19.90;34.66;101017.19;5056421;28;1910;-48
2021/03/11 05:46:25;;;;;;;;;;;;;;;20.58;33.36;101020.84;5056238;28;794;-51
2021/03/11 05:48:50;;;;;;;;;;;;;;;20.05;34.21;101017.03;5037711;28;913;-46
2021/03/11 05:51:16;;;;;;;;;;;;;;;19.99;34.29;101031.97;5037946;28;851;-48
2021/03/11 05:53:41;;;;;;;;;;;;;;;19.48;35.09;101028.50;5039305;28;947;-50
2021/03/11 05:56:07;;;;;;;;;;;;;;;19.34;35.80;101060.59;5076380;28;802;-62
2021/03/11 05:58:32;;;;;;;;;;;;;;;20.29;33.71;101058.47;5076212;28;752;-55
2021/03/11 06:00:58;;;;;;;;;;;;;;;20.29;33.81;101052.94;5076384;28;783;-57
2021/03/11 06:03:24;;;;;;;;;;;;;;;19.93;34.43;101049.72;5076451;28;823;-52
2021/03/11 06:05:50;;;;;;;;;;;;;;;19.65;34.74;101050.16;5076024;28;835;-49
2021/03/11 06:08:15;;;;;;;;;;;;;;;19.16;36.20;101075.88;5076343;28;819;-60
2021/03/11 06:10:40;;;;;;;;;;;;;;;20.18;34.03;101073.50;5040503;28;959;-52
2021/03/11 06:13:06;;;;;;;;;;;;;;;20.61;33.03;101072.78;5038265;28;763;-51
2021/03/11 06:15:32;;;;;;;;;;;;;;;20.05;34.23;101091.56;5038272;28;1454;-58
2021/03/11 06:17:58;;;;;;;;;;;;;;;19.91;34.27;101096.94;5056264;28;772;-59
2021/03/11 06:20:24;;;;;;;;;;;;;;;19.34;35.65;101103.91;5055936;28;780;-58
2021/03/11 06:22:49;;;;;;;;;;;;;;;19.94;34.38;101106.56;5056229;28;800;-56
2021/03/11 06:25:16;;;;;;;;;;;;;;;20.67;32.94;101110.28;5055584;28;1922;-58
2021/03/11 06:27:42;;;;;;;;;;;;;;;20.11;34.08;101114.44;5055967;28;807;-48
2021/03/11 06:30:07;;;;;;;;;;;;;;;20.03;34.12;101118.63;5057873;28;855;-53
2021/03/11 06:32:52;;;;;;;;;;;;;;;19.62;34.87;101124.41;5059639;28;1239;-52
2021/03/11 06:35:18;;;;;;;;;;;;;;;19.41;35.62;101121.78;5057122;28;1092;-58
2021/03/11 06:37:44;;;;;;;;;;;;;;;20.38;33.69;101116.66;5080125;28;790;-50
2021/03/11 06:40:13;;;;;;;;;;;;;;;20.08;34.09;101128.81;5065846;28;966;-46
2021/03/11 06:42:38;;;;;;;;;;;;;;;19.95;34.31;101130.28;5041971;28;869;-50
2021/03/11 06:45:13;;;;;;;;;;;;;;;19.45;35.25;101150.44;5041692;28;1979;-58
2021/03/11 06:47:39;;;;;;;;;;;;;;;19.30;35.60;101153.28;5042017;28;790;-50
2021/03/11 06:50:05;;;;;;;;;;;;;;;20.33;33.66;101169.19;5059624;28;807;-58
2021/03/11 06:52:31;;;;;;;;;;;;;;;20.55;33.05;101165.13;5059613;28;815;-50
2021/03/11 06:54:58;;;;;;;;;;;;;;;20.12;34.22;101174.06;5071261;28;1123;-45
2021/03/11 06:57:35;;;;;;;;;;;;;;;19.80;34.51;101170.69;5079390;28;829;-47
2021/03/11 07:00:03;;;;;;;;;;;;;;;19.32;35.60;101173.09;5079442;28;786;-48
2021/03/11 07:02:29;;;;;;;;;;;;;;;20.08;34.21;101171.03;5079060;28;826;-50
2021/03/11 07:04:55;;;;;;;;;;;;;;;20.24;33.86;101184.72;5079168;28;1909;-54
2021/03/11 07:07:21;;;;;;;;;;;;;;;19.86;34.32;101188.03;5078903;28;876;-52
2021/03/11 07:09:47;;;;;;;;;;;;;;;19.73;34.83;101185.88;5068261;28;938;-50
2021/03/11 07:12:13;;;;;;;;;;;;;;;19.06;36.20;101200.78;5058917;28;833;-56
2021/03/11 07:14:38;;;;;;;;;;;;;;;19.95;34.32;101200.13;5058719;28;803;-50
2021/03/11 07:17:20;;;;;;;;;;;;;;;20.61;33.06;101208.16;5058720;28;806;-61
2021/03/11 07:20:12;;;;;;;;;;;;;;;20.05;34.29;101213.03;5058819;28;778;-51
2021/03/11 07:22:37;;;;;;;;;;;;;;;19.79;34.51;101207.66;5037667;28;1203;-51
2021/03/11 07:25:04;;;;;;;;;;;;;;;19.29;35.35;101204.00;5070817;28;1914;-60
2021/03/11 07:27:39;;;;;;;;;;;;;;;20.08;33.95;101209.69;5078910;28;802;-53
2021/03/11 07:30:05;;;;;;;;;;;;;;;20.64;33.12;101197.34;5078759;28;751;-51
2021/03/11 07:32:31;;;;;;;;;;;;;;;20.07;34.18;101212.75;5078407;28;1468;-51
2021/03/11 07:34:56;;;;;;;;;;;;;;;19.83;34.49;101211.50;5048556;28;1061;-52
2021/03/11 07:37:22;;;;;;;;;;;;;;;19.27;35.64;101220.84;5058163;28;728;-54
2021/03/11 07:39:48;;;;;;;;;;;;;;;19.94;34.31;101216.97;5040329;28;964;-54
2021/03/11 07:42:13;;;;;;;;;;;;;;;20.47;33.28;101219.88;5058156;28;815;-55
2021/03/11 07:44:39;;;;;;;;;;;;;;;20.05;33.90;101229.59;5058471;28;1910;-53
2021/03/11 07:47:05;;;;;;;;;;;;;;;20.07;34.07;101235.63;5058522;28;810;-54
2021/03/11 07:49:30;;;;;;;;;;;;;;;19.47;35.11;101230.13;5058179;28;818;-52
2021/03/11 07:51:56;;;;;;;;;;;;;;;19.57;35.34;101235.63;5040355;28;945;-51
2021/03/11 07:54:21;;;;;;;;;;;;;;;20.34;33.56;101245.38;5064703;28;1015;-53
2021/03/11 07:56:50;;;;;;;;;;;;;;;20.35;33.70;101238.75;5077889;28;810;-53
2021/03/11 07:59:15;;;;;;;;;;;;;;;20.09;33.82;101255.53;5077956;28;826;-52
2021/03/11 08:01:45;;;;;;;;;;;;;;;19.62;34.88;101259.59;5077966;28;783;-53
2021/03/11 08:04:11;;;;;;;;;;;;;;;19.22;35.66;101269.66;5078105;28;1953;-54
2021/03/11 08:06:36;;;;;;;;;;;;;;;20.09;33.89;101274.00;5059910;28;812;-49
2021/03/11 08:09:05;;;;;;;;;;;;;;;20.81;32.88;101274.31;5073648;28;998;-60
2021/03/11 08:11:34;;;;;;;;;;;;;;;20.18;33.59;101262.06;5039821;28;748;-53
2021/03/11 08:14:18;;;;;;;;;;;;;;;20.02;33.92;101266.06;5057729;28;760;-50
2021/03/11 08:16:43;;;;;;;;;;;;;;;19.40;35.16;101284.78;5057734;28;823;-50
2021/03/11 08:19:09;;;;;;;;;;;;;;;19.77;34.48;101276.09;5057789;28;799;-51
2021/03/11 08:21:37;;;;;;;;;;;;;;;20.58;33.24;101272.28;5057586;28;799;-50
2021/03/11 08:24:22;;;;;;;;;;;;;;;20.14;33.83;101283.06;5061757;28;1976;-52
2021/03/11 08:26:48;;;;;;;;;;;;;;;20.02;33.98;101274.34;5077330;28;1465;-51
2021/03/11 08:29:14;;;;;;;;;;;;;;;19.39;35.23;101277.59;5077331;28;982;-50
2021/03/11 08:31:40;;;;;;;;;;;;;;;19.60;35.15;101284.72;5076930;28;1096;-49
2021/03/11 08:34:05;;;;;;;;;;;;;;;20.39;33.54;101289.56;5072076;28;1040;-48
2021/03/11 08:36:33;;;;;;;;;;;;;;;20.13;33.83;101289.72;5057220;28;756;-51
2021/03/11 08:38:59;;;;;;;;;;;;;;;20.07;33.88;101290.84;5057192;28;995;-48
2021/03/11 08:41:28;;;;;;;;;;;;;;;19.72;34.61;101278.84;5057026;28;887;-50
2021/03/11 08:43:53;;;;;;;;;;;;;;;19.15;35.76;101287.31;5057136;28;1969;-51
2021/03/11 08:46:20;;;;;;;;;;;;;;;19.79;34.55;101282.16;5056788;28;810;-49
2021/03/11 08:48:49;;;;;;;;;;;;;;;20.65;33.16;101294.88;5057567;28;806;-52
2021/03/11 08:51:17;;;;;;;;;;;;;;;20.14;33.87;101296.06;5057089;28;846;-52
2021/03/11 08:53:50;;;;;;;;;;;;;;;20.14;33.99;101299.63;5055969;28;944;-51
2021/03/11 08:56:16;;;;;;;;;;;;;;;19.53;35.24;101299.91;5057225;28;743;-51
2021/03/11 08:58:53;;;;;;;;;;;;;;;19.20;35.71;101302.19;5056758;28;850;-62
2021/03/11 09:01:28;;;;;;;;;;;;;;;19.77;34.59;101303.66;5056767;28;831;-52
2021/03/11 09:03:54;;;;;;;;;;;;;;;20.58;33.08;101288.84;5056688;28;1963;-61
2021/03/11 09:06:20;;;;;;;;;;;;;;;20.18;33.67;101306.25;5056498;28;775;-50
2021/03/11 09:08:47;;;;;;;;;;;;;;;20.07;34.17;101301.91;5058669;28;1006;-54
2021/03/11 09:11:15;;;;;;;;;;;;;;;19.41;35.15;101298.28;5076772;28;798;-51
2021/03/11 09:13:43;;;;;;;;;;;;;;;19.42;35.25;101312.88;5076368;28;763;-51
2021/03/11 09:16:09;;;;;;;;;;;;;;;20.37;33.48;101319.41;5076507;28;798;-55
2021/03/11 09:18:35;;;;;;;;;;;;;;;20.58;33.01;101311.81;5076565;28;827;-58
2021/03/11 09:21:02;;;;;;;;;;;;;;;20.08;33.76;101311.84;5076570;28;831;-56
2021/03/11 09:23:37;;;;;;;;;;;;;;;19.90;34.42;101316.06;5076504;28;755;-47
2021/03/11 09:26:03;;;;;;;;;;;;;;;19.38;35.04;101314.56;5076396;28;858;-47
2021/03/11 09:28:28;;;;;;;;;;;;;;;19.60;35.03;101322.47;5076189;28;763;-48
2021/03/11 09:30:54;;;;;;;;;;;;;;;20.38;33.41;101325.75;5076438;28;795;-48
2021/03/11 09:33:22;;;;;;;;;;;;;;;20.38;33.44;101331.28;5076454;28;1029;-48
2021/03/11 09:35:49;;;;;;;;;;;;;;;20.03;33.99;101333.94;5056843;28;1254;-46
2021/03/11 09:38:20;;;;;;;;;;;;;;;19.79;34.59;101334.59;5056305;28;759;-49
2021/03/11 09:40:47;;;;;;;;;;;;;;;19.43;35.30;101339.34;5055908;28;944;-52
2021/03/11 09:43:15;;;;;;;;;;;;;;;19.74;34.58;101339.28;5056120;28;771;-54
2021/03/11 09:45:42;;;;;;;;;;;;;;;20.52;33.40;101340.56;5056311;28;1984;-49
2021/03/11 09:48:12;;;;;;;;;;;;;;;20.34;33.45;101344.81;5056039;28;815;-51
2021/03/11 09:50:38;;;;;;;;;;;;;;;20.12;33.79;101340.53;5056230;28;823;-49
2021/03/11 09:53:04;;;;;;;;;;;;;;;19.70;34.62;101341.78;5056134;28;823;-52
2021/03/11 09:55:30;;;;;;;;;;;;;;;19.13;35.89;101346.59;5054252;28;968;-56
2021/03/11 09:57:55;;;;;;;;;;;;;;;19.71;35.03;101357.22;5069285;28;1028;-63
2021/03/11 10:00:21;;;;;;;;;;;;;;;20.51;33.39;101356.31;5063917;28;1249;-57
2021/03/11 10:02:52;;;;;;;;;;;;;;;20.06;34.11;101360.97;5063804;28;1234;-61
2021/03/11 10:05:17;;;;;;;;;;;;;;;20.00;34.23;101367.63;5076514;28;1910;-57
2021/03/11 10:07:43;;;;;;;;;;;;;;;19.38;35.25;101366.97;5078835;28;1113;-57
2021/03/11 10:10:12;;;;;;;;;;;;;;;19.77;34.56;101372.66;5066109;28;951;-59
2021/03/11 10:12:38;;;;;;;;;;;;;;;20.59;33.03;101370.63;5060080;28;803;-52
2021/03/11 10:15:11;;;;;;;;;;;;;;;20.16;33.92;101366.47;5059652;28;799;-64
2021/03/11 10:17:36;;;;;;;;;;;;;;;20.09;33.75;101378.91;5059814;28;844;-56
2021/03/11 10:20:22;;;;;;;;;;;;;;;19.40;35.32;101373.03;5060200;28;819;-51
2021/03/11 10:22:48;;;;;;;;;;;;;;;19.72;34.77;101369.09;5059692;28;784;-52
2021/03/11 10:25:14;;;;;;;;;;;;;;;20.59;33.08;101370.63;5059311;28;1922;-57
2021/03/11 10:27:42;;;;;;;;;;;;;;;20.29;33.54;101372.47;5066862;28;1195;-60
2021/03/11 10:30:12;;;;;;;;;;;;;;;20.09;34.12;101378.91;5050286;28;1234;-55
2021/03/11 10:32:38;;;;;;;;;;;;;;;19.59;34.93;101381.53;5069458;28;1285;-58
2021/03/11 10:35:05;;;;;;;;;;;;;;;19.11;35.57;101381.84;5067890;28;1230;-56
2021/03/11 10:37:34;;;;;;;;;;;;;;;19.94;34.23;101385.34;5067606;28;1189;-52
2021/03/11 10:40:01;;;;;;;;;;;;;;;20.80;32.87;101387.94;5066334;28;1155;-64
2021/03/11 10:42:38;;;;;;;;;;;;;;;20.32;33.37;101382.94;5068666;28;1222;-62
2021/03/11 10:45:06;;;;;;;;;;;;;;;20.08;33.69;101378.09;5068229;28;1922;-64
2021/03/11 10:47:31;;;;;;;;;;;;;;;19.63;34.74;101397.25;5067454;28;1241;-66
2021/03/11 10:49:57;;;;;;;;;;;;;;;19.16;35.73;101390.13;5069482;28;1127;-70
2021/03/11 10:52:22;;;;;;;;;;;;;;;19.79;34.42;101386.16;5067488;28;1183;-54
2021/03/11 10:54:48;;;;;;;;;;;;;;;20.58;33.22;101380.03;5067411;28;1221;-54
2021/03/11 10:57:13;;;;;;;;;;;;;;;20.31;33.47;101392.34;5069000;28;1182;-54
2021/03/11 10:59:52;;;;;;;;;;;;;;;20.21;33.48;101390.44;5079170;28;766;-55
2021/03/11 11:02:18;;;;;;;;;;;;;;;19.57;34.77;101395.63;5079558;28;731;-58
2021/03/11 11:04:43;;;;;;;;;;;;;;;19.24;35.26;101389.59;5078662;28;1909;-60
2021/03/11 11:07:09;;;;;;;;;;;;;;;20.10;33.81;101386.91;5079073;28;815;-50
2021/03/11 11:09:35;;;;;;;;;;;;;;;20.91;32.41;101383.97;5070009;28;946;-58
2021/03/11 11:12:01;;;;;;;;;;;;;;;21.19;31.87;101385.13;5058710;28;740;-58
2021/03/11 11:14:26;;;;;;;;;;;;;;;20.51;32.93;101386.72;5058798;28;755;-51
2021/03/11 11:16:55;;;;;;;;;;;;;;;20.32;33.43;101381.00;5058378;28;783;-53
2021/03/11 11:19:20;;;;;;;;;;;;;;;19.73;34.61;101384.53;5058638;28;815;-51
2021/03/11 11:21:46;;;;;;;;;;;;;;;19.09;36.10;101392.34;5058780;28;787;-58
2021/03/11 11:24:12;;;;;;;;;;;;;;;19.88;34.64;101383.69;5063790;28;1922;-56
2021/03/11 11:26:37;;;;;;;;;;;;;;;20.66;32.92;101371.97;5078583;28;668;-58
2021/03/11 11:29:05;;;;;;;;;;;;;;;20.21;33.67;101381.34;5078868;28;811;-59
2021/03/11 11:31:32;;;;;;;;;;;;;;;20.12;33.88;101384.69;5078327;28;1246;-59
2021/03/11 11:33:57;;;;;;;;;;;;;;;19.50;35.27;101384.03;5074550;28;1158;-59
2021/03/11 11:36:22;;;;;;;;;;;;;;;19.18;35.66;101392.59;5058398;28;744;-59
2021/03/11 11:38:49;;;;;;;;;;;;;;;20.15;34.00;101386.88;5060349;28;999;-54
2021/03/11 11:41:15;;;;;;;;;;;;;;;20.45;33.31;101384.25;5078370;28;791;-55
2021/03/11 11:43:41;;;;;;;;;;;;;;;20.20;33.82;101385.22;5078292;28;1892;-53
2021/03/11 11:46:07;;;;;;;;;;;;;;;19.92;34.41;101390.28;5078089;28;824;-53
2021/03/11 11:48:32;;;;;;;;;;;;;;;19.32;35.47;101389.03;5078267;28;827;-53
2021/03/11 11:50:58;;;;;;;;;;;;;;;19.83;34.67;101395.56;5078226;28;847;-57
2021/03/11 11:53:23;;;;;;;;;;;;;;;20.57;33.28;101401.31;5078182;28;755;-54
2021/03/11 11:55:48;;;;;;;;;;;;;;;20.15;33.97;101403.47;5058759;28;999;-55
2021/03/11 11:58:14;;;;;;;;;;;;;;;20.08;33.89;101389.13;5058038;28;811;-53
2021/03/11 12:00:39;;;;;;;;;;;;;;;19.47;35.00;101398.38;5057835;28;752;-54
2021/03/11 12:03:05;;;;;;;;;;;;;;;19.19;35.88;101402.53;5057987;28;854;-51
2021/03/11 12:05:30;;;;;;;;;;;;;;;20.18;34.17;101404.84;5057811;28;1987;-62
2021/03/11 12:07:56;;;;;;;;;;;;;;;20.54;32.95;101399.13;5057955;28;764;-55
2021/03/11 12:10:22;;;;;;;;;;;;;;;20.24;33.64;101402.88;5072624;28;1050;-58
2021/03/11 12:12:47;;;;;;;;;;;;;;;20.11;33.80;101407.06;5076516;28;826;-58
2021/03/11 12:15:13;;;;;;;;;;;;;;;19.46;35.26;101392.03;5077457;28;791;-57
2021/03/11 12:17:38;;;;;;;;;;;;;;;19.36;35.41;101402.25;5078051;28;768;-55
2021/03/11 12:20:04;;;;;;;;;;;;;;;20.28;33.65;101398.44;5077581;28;820;-57
2021/03/11 12:22:30;;;;;;;;;;;;;;;20.15;33.73;101399.88;5077267;28;848;-58
2021/03/11 12:24:56;;;;;;;;;;;;;;;20.10;34.20;101397.94;5065579;28;1910;-55
2021/03/11 12:27:24;;;;;;;;;;;;;;;19.67;35.00;101400.28;5056522;28;859;-57
2021/03/11 12:29:53;;;;;;;;;;;;;;;19.34;35.74;101397.03;5057318;28;758;-55
2021/03/11 12:32:18;;;;;;;;;;;;;;;20.33;33.53;101402.00;5057375;28;1104;-58
2021/03/11 12:34:44;;;;;;;;;;;;;;;20.57;33.00;101401.31;5067552;28;1101;-57
2021/03/11 12:37:10;;;;;;;;;;;;;;;20.17;33.83;101403.16;5077166;28;846;-51
2021/03/11 12:39:35;;;;;;;;;;;;;;;19.98;34.05;101389.19;5068229;28;959;-49
2021/03/11 12:42:01;;;;;;;;;;;;;;;19.37;35.27;101401.97;5057117;28;822;-48
2021/03/11 12:44:27;;;;;;;;;;;;;;;19.85;34.56;101412.66;5057001;28;1906;-49
2021/03/11 12:46:54;;;;;;;;;;;;;;;20.71;32.76;101415.34;5057141;28;867;-49
2021/03/11 12:49:20;;;;;;;;;;;;;;;20.30;33.64;101426.59;5056944;28;755;-49
2021/03/11 12:51:46;;;;;;;;;;;;;;;20.18;33.92;101422.22;5056951;28;775;-55